Totland Bay, United Kingdom
Current Conditions -  °F | °C
As of 12:50 PM on Friday 24 Oct 2014 (Local Time) from EGHH Reporting Station
Broken Clouds Broken Clouds  
Wind Chill: 16°   Ceiling: 1500
Heat Index: 16°   Visibility: 6mi
Dew Point: 15°   Wind: 6mph
Humidity: 94%   Direction: 230°SW
Pressure: 29.94"   Gusts: NA
Location:  50.68°N, 1.53°W
Report Text: EGHH 241150Z 23005KT 9999 FEW010 BKN015 16/15 Q1014
Loading
Personal Weather Stations






























Interactive Weather Map
Tropical Storm Tracking
New forecast layout! Learn more

10-Day Weather Forecast

Advertisements
Track Severe Weather on mobile